Manor, Texas
Current Conditions -  °F | °C
As of 3:35 PM on Thursday 18 Dec 2014 (Local Time) from KEDC Reporting Station
Overcast Overcast  
Wind Chill: 57°   Ceiling: 800
Heat Index: 57°   Visibility: 9mi
Dew Point: 54°   Wind: 7mph
Humidity: 88%   Direction: 40°NE
Pressure: 30.07"   Gusts: NA
Location:  30.34°N, 97.56°W
Report Text: KEDC 182135Z AUTO 04006KT 9SM OVC008 14/12 A3007 RMK AO2
Loading
Personal Weather Stations






























Interactive Weather Map New forecast layout! Learn more

10-Day Weather Forecast

Advertisements
Track Severe Weather on mobile